createdAt,value
2023-10-16T00:02:51.487Z,79
2023-10-16T00:06:16.685Z,78
2023-10-16T00:09:41.898Z,78
2023-10-16T00:13:07.037Z,78
2023-10-16T00:16:32.272Z,78
2023-10-16T00:19:57.540Z,77
2023-10-16T00:23:22.770Z,77
2023-10-16T00:26:48.029Z,77
2023-10-16T00:30:13.300Z,76
2023-10-16T00:33:38.598Z,76
2023-10-16T00:37:03.862Z,76
2023-10-16T00:40:29.109Z,76
2023-10-16T00:43:54.310Z,76
2023-10-16T00:47:19.551Z,76
2023-10-16T00:50:44.834Z,76
2023-10-16T00:54:10.058Z,77
2023-10-16T00:57:35.297Z,76
2023-10-16T01:01:00.542Z,76
2023-10-16T01:04:25.907Z,78
2023-10-16T01:07:50.937Z,78
2023-10-16T01:11:16.163Z,78
2023-10-16T01:14:41.461Z,78
2023-10-16T01:18:06.635Z,79
2023-10-16T01:21:31.870Z,79
2023-10-16T01:24:57.036Z,78
2023-10-16T01:28:22.210Z,78
2023-10-16T01:31:47.382Z,78
2023-10-16T01:35:12.593Z,78
2023-10-16T01:38:37.798Z,79
2023-10-16T01:42:03.014Z,79
2023-10-16T01:45:28.568Z,78
2023-10-16T01:48:53.482Z,78
2023-10-16T01:52:18.754Z,78
2023-10-16T01:55:43.908Z,78
2023-10-16T01:59:09.107Z,79
2023-10-16T02:02:34.391Z,79
2023-10-16T02:05:59.526Z,79
2023-10-16T02:09:25.112Z,80
2023-10-16T02:12:49.979Z,79
2023-10-16T02:16:15.171Z,79
2023-10-16T02:19:40.338Z,79
2023-10-16T02:23:05.504Z,79
2023-10-16T02:26:30.713Z,80
2023-10-16T02:29:55.924Z,81
2023-10-16T02:33:21.131Z,81
2023-10-16T02:36:46.365Z,81
2023-10-16T02:40:11.530Z,81
2023-10-16T02:43:36.726Z,81
2023-10-16T02:47:01.921Z,80
2023-10-16T02:50:27.125Z,79
2023-10-16T02:53:52.403Z,78
2023-10-16T02:57:17.575Z,78
2023-10-16T03:00:42.808Z,78
2023-10-16T03:04:07.996Z,78
2023-10-16T03:07:33.156Z,78
2023-10-16T03:10:58.382Z,79
2023-10-16T03:14:23.566Z,79
2023-10-16T03:17:48.753Z,79
2023-10-16T03:21:13.946Z,78
2023-10-16T03:24:39.170Z,78
2023-10-16T03:28:04.368Z,79
2023-10-16T03:31:29.585Z,79
2023-10-16T03:34:54.753Z,79
2023-10-16T03:38:20.064Z,79
2023-10-16T03:41:45.317Z,78
2023-10-16T03:45:10.538Z,79
2023-10-16T03:48:35.728Z,78
2023-10-16T03:52:00.932Z,79
2023-10-16T03:55:26.483Z,79
2023-10-16T03:58:51.451Z,78
2023-10-16T04:02:16.671Z,77
2023-10-16T04:05:41.861Z,77
2023-10-16T04:09:07.041Z,77
2023-10-16T04:12:32.251Z,77
2023-10-16T04:15:57.501Z,77
2023-10-16T04:19:23.153Z,78
2023-10-16T04:22:48.360Z,77
2023-10-16T04:26:13.594Z,77
2023-10-16T04:29:38.817Z,77
2023-10-16T04:33:04.046Z,77
2023-10-16T04:36:30.225Z,77
2023-10-16T04:39:54.515Z,78
2023-10-16T04:43:19.727Z,77
2023-10-16T04:46:44.937Z,77
2023-10-16T04:50:10.135Z,77
2023-10-16T04:53:35.359Z,76
2023-10-16T04:57:00.525Z,76
2023-10-16T05:00:25.744Z,76
2023-10-16T05:03:50.978Z,76
2023-10-16T05:07:16.160Z,76
2023-10-16T05:10:41.397Z,76
2023-10-16T05:14:06.576Z,77
2023-10-16T05:17:31.816Z,77
2023-10-16T05:20:57.000Z,77
2023-10-16T05:24:22.244Z,77
2023-10-16T05:27:47.432Z,77
2023-10-16T05:31:12.616Z,77
2023-10-16T05:34:37.854Z,76
2023-10-16T05:38:03.044Z,76
2023-10-16T05:41:28.264Z,76
2023-10-16T05:44:53.499Z,76
2023-10-16T05:48:18.692Z,76
2023-10-16T05:51:43.918Z,76
2023-10-16T05:55:09.121Z,77
2023-10-16T05:58:34.315Z,76
2023-10-16T06:01:59.565Z,77
2023-10-16T06:05:24.743Z,76
2023-10-16T06:08:49.963Z,77
2023-10-16T06:12:15.182Z,77
2023-10-16T06:15:40.462Z,77
2023-10-16T06:19:05.663Z,77
2023-10-16T06:22:30.849Z,78
2023-10-16T06:25:56.080Z,78
2023-10-16T06:29:21.310Z,77
2023-10-16T06:32:46.543Z,78
2023-10-16T06:36:11.747Z,78
2023-10-16T06:39:36.976Z,78
2023-10-16T06:43:02.180Z,78
2023-10-16T06:46:27.398Z,78
2023-10-16T06:49:52.605Z,78
2023-10-16T06:53:17.836Z,78
2023-10-16T06:56:42.992Z,79
2023-10-16T07:00:08.209Z,79
2023-10-16T07:03:33.469Z,79
2023-10-16T07:06:58.646Z,79
2023-10-16T07:10:23.881Z,79
2023-10-16T07:13:49.074Z,80
2023-10-16T07:17:14.282Z,80
2023-10-16T07:20:39.492Z,80
2023-10-16T07:24:04.704Z,79
2023-10-16T07:27:29.964Z,79
2023-10-16T07:30:55.180Z,79
2023-10-16T07:34:20.360Z,80
2023-10-16T07:37:45.579Z,80
2023-10-16T07:41:10.857Z,80
2023-10-16T07:44:36.132Z,80
2023-10-16T07:48:01.323Z,80
2023-10-16T07:51:26.713Z,80
2023-10-16T07:54:51.908Z,80
2023-10-16T07:58:17.021Z,80
2023-10-16T08:01:42.288Z,80
2023-10-16T08:05:07.450Z,80
2023-10-16T08:08:32.665Z,80
2023-10-16T08:11:57.893Z,80
2023-10-16T08:15:27.340Z,80
2023-10-16T08:18:51.718Z,81
2023-10-16T08:22:16.901Z,80
2023-10-16T08:25:42.116Z,80
2023-10-16T08:29:07.308Z,81
2023-10-16T08:32:32.564Z,81
2023-10-16T08:35:57.768Z,82
2023-10-16T08:39:22.948Z,82
2023-10-16T08:42:48.161Z,81
2023-10-16T08:46:13.414Z,81
2023-10-16T08:49:44.487Z,81
2023-10-16T08:53:03.803Z,81
2023-10-16T08:56:28.980Z,81
2023-10-16T08:59:54.225Z,80
2023-10-16T09:03:19.563Z,80
2023-10-16T09:06:44.704Z,80
2023-10-16T09:10:09.926Z,79
2023-10-16T09:13:35.130Z,79
2023-10-16T09:17:00.397Z,79
2023-10-16T09:20:25.548Z,80
2023-10-16T09:23:50.774Z,81
2023-10-16T09:27:16.055Z,79
2023-10-16T09:30:41.308Z,79
2023-10-16T09:34:06.512Z,76
2023-10-16T09:37:31.719Z,78
2023-10-16T09:40:56.920Z,76
2023-10-16T09:44:22.222Z,76
2023-10-16T09:47:47.347Z,76
2023-10-16T09:51:12.539Z,75
2023-10-16T09:54:38.031Z,75
2023-10-16T09:58:03.006Z,74
2023-10-16T10:01:28.453Z,73
2023-10-16T10:04:53.546Z,74
2023-10-16T10:08:18.690Z,72
2023-10-16T10:11:43.901Z,74
2023-10-16T10:15:09.114Z,74
2023-10-16T10:18:34.477Z,74
2023-10-16T10:21:59.616Z,74
2023-10-16T10:25:24.811Z,73
2023-10-16T10:28:50.015Z,72
2023-10-16T10:32:15.248Z,71
2023-10-16T10:35:40.567Z,72
2023-10-16T10:39:05.664Z,72
2023-10-16T10:42:30.884Z,71
2023-10-16T10:45:56.141Z,71
2023-10-16T10:49:21.412Z,71
2023-10-16T10:52:46.702Z,72
2023-10-16T10:56:11.808Z,71
2023-10-16T10:59:37.035Z,72
2023-10-16T11:03:02.263Z,73
2023-10-16T11:06:27.476Z,73
2023-10-16T11:09:53.061Z,72
2023-10-16T11:13:18.113Z,70
2023-10-16T11:16:43.315Z,70
2023-10-16T11:20:08.554Z,73
2023-10-16T11:23:33.806Z,74
2023-10-16T11:26:59.143Z,74
2023-10-16T11:30:24.257Z,72
2023-10-16T11:33:49.568Z,75
2023-10-16T11:37:14.863Z,73
2023-10-16T11:40:40.034Z,73
2023-10-16T11:44:05.271Z,71
2023-10-16T11:47:30.476Z,71
2023-10-16T11:50:55.681Z,71
2023-10-16T11:54:20.896Z,71
2023-10-16T11:57:46.128Z,71
2023-10-16T12:01:29.586Z,71
2023-10-16T12:04:36.629Z,70
2023-10-16T12:08:01.777Z,69
2023-10-16T12:11:27.040Z,73
2023-10-16T12:14:58.699Z,74
2023-10-16T12:18:24.023Z,75
2023-10-16T12:21:49.220Z,75
2023-10-16T12:25:14.420Z,74
2023-10-16T12:28:39.588Z,75
2023-10-16T12:32:04.935Z,74
2023-10-16T12:35:30.212Z,75
2023-10-16T12:38:55.309Z,75
2023-10-16T12:42:20.605Z,75
2023-10-16T12:45:46.166Z,75
2023-10-16T12:49:11.404Z,74
2023-10-16T12:52:37.617Z,73
2023-10-16T12:56:02.709Z,73
2023-10-16T12:59:27.949Z,73
2023-10-16T13:02:53.308Z,74
2023-10-16T13:06:18.475Z,72
2023-10-16T13:09:43.882Z,73
2023-10-16T13:13:09.033Z,74
2023-10-16T13:16:34.256Z,74
2023-10-16T13:19:59.498Z,73
2023-10-16T13:23:34.835Z,72
2023-10-16T13:26:50.172Z,71
2023-10-16T13:30:15.308Z,73
2023-10-16T13:33:40.619Z,74
2023-10-16T13:37:05.897Z,74
2023-10-16T13:40:31.087Z,71
2023-10-16T13:43:57.610Z,72
2023-10-16T13:47:21.559Z,73
2023-10-16T13:50:46.815Z,73
2023-10-16T13:54:12.068Z,73
2023-10-16T13:57:37.453Z,73
2023-10-16T14:01:02.673Z,74
2023-10-16T14:04:28.080Z,72
2023-10-16T14:07:53.119Z,74
2023-10-16T14:11:18.411Z,73
2023-10-16T14:14:43.659Z,72
2023-10-16T14:18:09.076Z,73
2023-10-16T14:21:34.537Z,73
2023-10-16T14:24:59.870Z,72
2023-10-16T14:28:26.264Z,73
2023-10-16T14:31:51.625Z,73
2023-10-16T14:35:16.845Z,75
2023-10-16T14:38:42.135Z,75
2023-10-16T14:42:12.389Z,75
2023-10-16T14:45:37.716Z,75
2023-10-16T14:49:04.178Z,75
2023-10-16T14:52:29.645Z,75
2023-10-16T14:56:25.532Z,74
2023-10-16T14:59:50.841Z,74
2023-10-16T15:03:16.228Z,74
2023-10-16T15:06:41.432Z,74
2023-10-16T15:10:06.767Z,73
2023-10-16T15:46:15.734Z,73
2023-10-16T15:49:40.974Z,73
2023-10-16T15:53:06.272Z,72
2023-10-16T15:56:31.587Z,74
2023-10-16T15:59:57.745Z,74
2023-10-16T16:03:23.055Z,74
2023-10-16T16:06:48.827Z,73
2023-10-16T16:10:14.223Z,73
2023-10-16T16:13:39.449Z,73
2023-10-16T16:17:04.807Z,75
2023-10-16T16:20:30.325Z,75
2023-10-16T16:23:55.619Z,76
2023-10-16T16:27:20.937Z,76
2023-10-16T16:30:46.183Z,75
2023-10-16T16:34:11.468Z,75
2023-10-16T16:37:36.799Z,75
2023-10-16T16:41:40.533Z,75
2023-10-16T16:45:05.783Z,76
2023-10-16T16:48:31.087Z,77
2023-10-16T16:51:56.325Z,77
2023-10-16T16:55:21.576Z,76
2023-10-16T16:58:46.784Z,76
2023-10-16T17:02:12.069Z,77
2023-10-16T17:05:37.351Z,77
2023-10-16T17:09:04.764Z,77
2023-10-16T17:12:30.349Z,77
2023-10-16T17:15:56.021Z,77
2023-10-16T17:19:35.574Z,76
2023-10-16T17:23:07.291Z,77
2023-10-16T17:26:32.613Z,77
2023-10-16T17:29:57.962Z,77
2023-10-16T17:33:23.249Z,77
2023-10-16T17:36:48.578Z,77
2023-10-16T17:40:13.941Z,78
2023-10-16T17:43:39.193Z,79
2023-10-16T17:47:04.504Z,78
2023-10-16T17:50:29.767Z,78
2023-10-16T17:53:55.106Z,78
2023-10-16T17:57:20.352Z,78
2023-10-16T18:00:45.662Z,78
2023-10-16T18:04:11.106Z,78
2023-10-16T18:07:36.300Z,78
2023-10-16T18:11:01.596Z,78
2023-10-16T18:14:26.994Z,78
2023-10-16T18:17:52.170Z,78
2023-10-16T18:21:17.463Z,78
2023-10-16T18:24:42.771Z,79
2023-10-16T18:28:08.013Z,79
2023-10-16T18:31:33.282Z,79
2023-10-16T18:34:58.583Z,79
2023-10-16T18:38:23.870Z,79
2023-10-16T18:41:49.199Z,79
2023-10-16T18:45:14.492Z,79
2023-10-16T18:48:39.751Z,79
2023-10-16T18:52:05.159Z,79
2023-10-16T18:55:30.481Z,79
2023-10-16T18:58:55.707Z,79
2023-10-16T19:02:20.993Z,79
2023-10-16T19:05:46.382Z,79
2023-10-16T19:09:11.628Z,79
2023-10-16T19:12:36.898Z,79
2023-10-16T19:16:02.216Z,79
2023-10-16T19:19:27.480Z,79
2023-10-16T19:22:52.791Z,79
2023-10-16T19:26:18.058Z,79
2023-10-16T19:29:43.383Z,79
2023-10-16T19:33:08.676Z,79
2023-10-16T19:36:33.957Z,78
2023-10-16T19:39:59.313Z,77
2023-10-16T19:43:25.264Z,78
2023-10-16T19:46:50.597Z,77
2023-10-16T19:50:15.755Z,77
2023-10-16T19:53:40.963Z,77
2023-10-16T19:57:06.225Z,77
2023-10-16T20:00:31.373Z,77
2023-10-16T20:03:56.626Z,77
2023-10-16T20:07:21.757Z,77
2023-10-16T20:10:46.968Z,77
2023-10-16T20:14:12.162Z,76
2023-10-16T20:17:37.406Z,77
2023-10-16T20:21:02.596Z,78
2023-10-16T20:24:27.829Z,77
2023-10-16T20:27:52.983Z,78
2023-10-16T20:31:18.244Z,78
2023-10-16T20:34:45.154Z,78
2023-10-16T20:38:08.627Z,77
2023-10-16T20:41:33.784Z,76
2023-10-16T20:44:59.006Z,76
2023-10-16T20:48:24.270Z,77
2023-10-16T20:51:49.415Z,77
2023-10-16T20:55:14.656Z,77
2023-10-16T20:58:39.842Z,76
2023-10-16T21:02:05.060Z,76
2023-10-16T21:05:30.254Z,77
2023-10-16T21:08:55.498Z,77
2023-10-16T21:12:20.730Z,78
2023-10-16T21:15:46.006Z,78
2023-10-16T21:19:11.062Z,77
2023-10-16T21:22:36.247Z,77
2023-10-16T21:26:01.449Z,76
2023-10-16T21:29:26.661Z,77
2023-10-16T21:32:51.883Z,78
2023-10-16T21:36:17.078Z,78
2023-10-16T21:39:42.249Z,77
2023-10-16T21:43:07.434Z,77
2023-10-16T21:46:32.748Z,77
2023-10-16T21:49:57.827Z,76
2023-10-16T21:53:23.017Z,76
2023-10-16T21:56:48.292Z,77
2023-10-16T22:00:14.297Z,78
2023-10-16T22:03:38.758Z,78
2023-10-16T22:07:03.835Z,79
2023-10-16T22:10:29.026Z,78
2023-10-16T22:13:54.215Z,78
2023-10-16T22:17:19.419Z,80
2023-10-16T22:20:44.639Z,79
2023-10-16T22:24:09.872Z,80
2023-10-16T22:27:35.042Z,79
2023-10-16T22:31:00.255Z,78
2023-10-16T22:34:25.622Z,78
2023-10-16T22:37:50.656Z,77
2023-10-16T22:41:15.811Z,77
2023-10-16T22:44:41.012Z,76
2023-10-16T22:48:06.288Z,76
2023-10-16T22:51:31.431Z,76
2023-10-16T22:54:56.648Z,78
2023-10-16T22:58:21.804Z,77
2023-10-16T23:01:47.000Z,78
2023-10-16T23:05:12.247Z,76
2023-10-16T23:08:37.468Z,78
2023-10-16T23:12:02.726Z,78
2023-10-16T23:15:27.901Z,79
2023-10-16T23:18:53.115Z,78
2023-10-16T23:22:18.365Z,78
2023-10-16T23:25:43.535Z,77
2023-10-16T23:29:09.877Z,78
2023-10-16T23:32:33.919Z,78
2023-10-16T23:35:59.146Z,77
2023-10-16T23:39:24.344Z,77
2023-10-16T23:42:49.536Z,78
2023-10-16T23:46:14.779Z,79
2023-10-16T23:49:39.925Z,79
2023-10-16T23:53:05.132Z,78
2023-10-16T23:56:30.314Z,78
2023-10-16T23:59:55.496Z,80
